Time;durP1;ratioP1;P1;durP2;ratioP2;P2;SDS_P1;SDS_P2;PMS_P1;PMS_P2;Temp;Humidity;BMP_temperature;BMP_pressure;BME280_temperature;BME280_humidity;BME280_pressure;Samples;Min_cycle;Max_cycle;Signal;HPM_P1;HPM_P2
2022/05/23 00:02:00;;;;;;;;;;;20.10;99.90;;;;;;4985212;28;19910;-87
2022/05/23 00:04:26;;;;;;;;;;;20.20;99.90;;;;;;4985067;28;19969;-87
2022/05/23 00:06:52;;;;;;;;;;;20.20;99.90;;;;;;4985183;28;20190;-87
2022/05/23 00:09:18;;;;;;;;;;;20.20;99.90;;;;;;4985179;28;19906;-87
2022/05/23 00:11:44;;;;;;;;;;;20.20;99.90;;;;;;4985123;28;20205;-87
2022/05/23 00:14:10;;;;;;;;;;;20.10;99.90;;;;;;4985370;28;19929;-88
2022/05/23 00:16:40;;;;;;;;;;;20.10;99.90;;;;;;4985739;28;19960;-87
2022/05/23 00:19:06;;;;;;;;;;;20.00;99.90;;;;;;4985162;28;19914;-87
2022/05/23 00:21:31;;;;;;;;;;;20.00;99.90;;;;;;4985080;28;19913;-88
2022/05/23 00:23:57;;;;;;;;;;;20.00;99.90;;;;;;4984615;28;19911;-87
2022/05/23 00:26:23;;;;;;;;;;;20.10;99.90;;;;;;4985388;28;20011;-87
2022/05/23 00:28:50;;;;;;;;;;;20.00;99.90;;;;;;4984047;28;19953;-87
2022/05/23 00:31:15;;;;;;;;;;;20.10;99.90;;;;;;4985055;28;20138;-87
2022/05/23 00:36:29;;;;;;;;;;;19.90;99.90;;;;;;4984749;28;19970;-87
2022/05/23 00:38:54;;;;;;;;;;;20.00;99.90;;;;;;4984919;28;19906;-87
2022/05/23 00:44:18;;;;;;;;;;;19.80;99.90;;;;;;4988101;28;19913;-87
2022/05/23 00:46:54;;;;;;;;;;;19.90;99.90;;;;;;4987923;28;20217;-87
2022/05/23 00:49:24;;;;;;;;;;;19.90;99.90;;;;;;4987671;28;19930;-87
2022/05/23 00:51:50;;;;;;;;;;;19.90;99.90;;;;;;4988228;28;19969;-87
2022/05/23 00:54:17;;;;;;;;;;;19.90;99.90;;;;;;4988029;28;19911;-88
2022/05/23 00:56:44;;;;;;;;;;;19.90;99.90;;;;;;4989348;28;20115;-87
2022/05/23 00:59:12;;;;;;;;;;;20.00;99.90;;;;;;4987610;28;20114;-87
2022/05/23 01:01:38;;;;;;;;;;;20.10;99.90;;;;;;4970356;28;19913;-87
2022/05/23 01:04:07;;;;;;;;;;;20.10;99.90;;;;;;4987982;28;19906;-88
2022/05/23 01:06:33;;;;;;;;;;;20.20;99.90;;;;;;4970463;28;19906;-87
2022/05/23 01:08:59;;;;;;;;;;;20.20;99.90;;;;;;4988446;28;19906;-87
2022/05/23 01:11:25;;;;;;;;;;;20.20;99.90;;;;;;4988526;28;20183;-87
2022/05/23 01:13:53;;;;;;;;;;;20.00;99.90;;;;;;4987591;28;19917;-87
2022/05/23 01:16:20;;;;;;;;;;;20.00;99.90;;;;;;4987497;28;19910;-87
2022/05/23 01:18:46;;;;;;;;;;;20.00;99.90;;;;;;4987297;28;20033;-87
2022/05/23 01:21:15;;;;;;;;;;;20.00;99.90;;;;;;4986792;28;20194;-87
2022/05/23 01:23:47;;;;;;;;;;;20.00;99.90;;;;;;4970448;28;19913;-87
2022/05/23 01:26:13;;;;;;;;;;;20.00;99.90;;;;;;4987960;28;19943;-87
2022/05/23 01:28:39;;;;;;;;;;;20.00;99.90;;;;;;4987759;28;20134;-87
2022/05/23 01:31:05;;;;;;;;;;;19.90;99.90;;;;;;4987266;28;19913;-87
2022/05/23 01:33:31;;;;;;;;;;;19.90;99.90;;;;;;4987963;28;19907;-87
2022/05/23 01:35:57;;;;;;;;;;;20.00;99.90;;;;;;4970398;28;19906;-87
2022/05/23 01:38:23;;;;;;;;;;;19.90;99.90;;;;;;4987808;28;19913;-87
2022/05/23 01:40:49;;;;;;;;;;;19.90;99.90;;;;;;4970095;28;19930;-87
2022/05/23 01:43:15;;;;;;;;;;;19.90;99.90;;;;;;4987867;28;20087;-87
2022/05/23 01:45:41;;;;;;;;;;;19.90;99.90;;;;;;4969531;28;20102;-87
2022/05/23 01:48:07;;;;;;;;;;;19.90;99.90;;;;;;4987057;28;19906;-87
2022/05/23 01:50:33;;;;;;;;;;;19.80;99.90;;;;;;4986783;28;20229;-87
2022/05/23 01:52:58;;;;;;;;;;;19.70;99.90;;;;;;4986440;28;19906;-87
2022/05/23 01:55:24;;;;;;;;;;;19.70;99.90;;;;;;4986645;28;19906;-88
2022/05/23 01:57:50;;;;;;;;;;;19.70;99.90;;;;;;4987248;28;19937;-87
2022/05/23 02:03:00;;;;;;;;;;;19.60;99.90;;;;;;4987283;28;20137;-87
2022/05/23 02:05:27;;;;;;;;;;;19.70;99.90;;;;;;4987499;28;19910;-87
2022/05/23 02:07:53;;;;;;;;;;;19.60;99.90;;;;;;4986927;28;19949;-87
2022/05/23 02:10:19;;;;;;;;;;;19.60;99.90;;;;;;4986740;28;20098;-87
2022/05/23 02:12:45;;;;;;;;;;;19.60;99.90;;;;;;4987006;28;20190;-87
2022/05/23 02:15:10;;;;;;;;;;;19.60;99.90;;;;;;4968826;28;19906;-87
2022/05/23 02:17:36;;;;;;;;;;;19.50;99.90;;;;;;4986592;28;19913;-87
2022/05/23 02:20:02;;;;;;;;;;;19.50;99.90;;;;;;4987295;28;19913;-87
2022/05/23 02:22:28;;;;;;;;;;;19.50;99.90;;;;;;4969820;28;19941;-87
2022/05/23 02:24:53;;;;;;;;;;;19.50;99.90;;;;;;4987506;28;19906;-87
2022/05/23 02:27:19;;;;;;;;;;;19.50;99.90;;;;;;4987666;28;20138;-87
2022/05/23 02:29:44;;;;;;;;;;;19.60;99.90;;;;;;4987025;28;20312;-87
2022/05/23 02:32:10;;;;;;;;;;;19.70;99.90;;;;;;4969552;28;20252;-87
2022/05/23 02:34:36;;;;;;;;;;;19.70;99.90;;;;;;4968532;28;19937;-87
2022/05/23 02:37:02;;;;;;;;;;;19.60;99.90;;;;;;4968333;28;19910;-87
2022/05/23 02:39:28;;;;;;;;;;;19.50;99.90;;;;;;4986636;28;19957;-87
2022/05/23 02:41:53;;;;;;;;;;;19.50;99.90;;;;;;4986872;28;19907;-87
2022/05/23 02:44:19;;;;;;;;;;;19.40;99.90;;;;;;4986416;28;19910;-87
2022/05/23 02:46:45;;;;;;;;;;;19.40;99.90;;;;;;4986195;28;19913;-87
2022/05/23 02:49:11;;;;;;;;;;;19.40;99.90;;;;;;4985882;28;20122;-88
2022/05/23 02:51:37;;;;;;;;;;;19.40;99.90;;;;;;4986511;28;19952;-87
2022/05/23 02:54:03;;;;;;;;;;;19.40;99.90;;;;;;4968446;28;19938;-87
2022/05/23 02:56:28;;;;;;;;;;;19.40;99.90;;;;;;4969281;28;20004;-87
2022/05/23 02:58:54;;;;;;;;;;;19.30;99.90;;;;;;4984825;28;19907;-87
2022/05/23 03:01:19;;;;;;;;;;;19.30;99.90;;;;;;4985933;28;20170;-87
2022/05/23 03:03:45;;;;;;;;;;;19.40;99.90;;;;;;4985022;28;19917;-87
2022/05/23 03:06:11;;;;;;;;;;;19.40;99.90;;;;;;4985183;28;20063;-88
2022/05/23 03:08:37;;;;;;;;;;;19.40;99.90;;;;;;4968158;28;19906;-90
2022/05/23 03:11:04;;;;;;;;;;;19.30;99.90;;;;;;4986395;28;19906;-87
2022/05/23 03:13:30;;;;;;;;;;;19.20;99.90;;;;;;4969053;28;19906;-87
2022/05/23 03:15:56;;;;;;;;;;;19.10;99.90;;;;;;4986372;28;19928;-86
2022/05/23 03:18:23;;;;;;;;;;;19.10;99.90;;;;;;4968861;28;20194;-89
2022/05/23 03:20:53;;;;;;;;;;;19.00;99.90;;;;;;4968688;28;19915;-87
2022/05/23 03:28:47;;;;;;;;;;;18.80;99.90;;;;;;4986024;28;19928;-91
2022/05/23 03:31:13;;;;;;;;;;;18.90;99.90;;;;;;4968764;28;20221;-86
2022/05/23 03:33:38;;;;;;;;;;;18.80;99.90;;;;;;4968078;28;19910;-86
2022/05/23 03:36:04;;;;;;;;;;;18.80;99.90;;;;;;4985548;28;19969;-88
2022/05/23 03:38:29;;;;;;;;;;;18.70;99.90;;;;;;4986052;28;20098;-87
2022/05/23 03:40:55;;;;;;;;;;;18.70;99.90;;;;;;4985359;28;19918;-88
2022/05/23 03:43:20;;;;;;;;;;;18.70;99.90;;;;;;4984365;28;19906;-89
2022/05/23 03:45:46;;;;;;;;;;;18.70;99.90;;;;;;4984796;28;19949;-92
2022/05/23 03:48:12;;;;;;;;;;;18.70;99.90;;;;;;4967598;28;19906;-91
2022/05/23 03:50:38;;;;;;;;;;;18.70;99.90;;;;;;4967439;28;19913;-90
2022/05/23 03:53:04;;;;;;;;;;;18.70;99.90;;;;;;4984678;28;19906;-90
2022/05/23 03:55:29;;;;;;;;;;;18.70;99.90;;;;;;4967983;28;19910;-88
2022/05/23 03:57:55;;;;;;;;;;;18.60;99.90;;;;;;4984719;28;20012;-88
2022/05/23 04:00:21;;;;;;;;;;;18.60;99.90;;;;;;4985322;28;20400;-89
2022/05/23 04:02:47;;;;;;;;;;;18.60;99.90;;;;;;4984949;28;19906;-87
2022/05/23 04:05:14;;;;;;;;;;;18.60;99.90;;;;;;4984682;28;20072;-87
2022/05/23 04:07:40;;;;;;;;;;;18.60;99.90;;;;;;4984706;28;20118;-87
2022/05/23 04:10:07;;;;;;;;;;;18.60;99.90;;;;;;4976188;28;19917;-85
2022/05/23 04:12:32;;;;;;;;;;;18.60;99.90;;;;;;4979157;28;19929;-84
2022/05/23 04:14:58;;;;;;;;;;;18.60;99.90;;;;;;4985730;28;19907;-84
2022/05/23 04:17:24;;;;;;;;;;;18.60;99.90;;;;;;4981232;28;19913;-84
2022/05/23 04:19:49;;;;;;;;;;;18.70;99.90;;;;;;4974189;28;19918;-84
2022/05/23 04:22:15;;;;;;;;;;;18.70;99.90;;;;;;4975103;28;19917;-84
2022/05/23 04:24:40;;;;;;;;;;;18.70;99.90;;;;;;4975498;28;20381;-84
2022/05/23 04:27:06;;;;;;;;;;;18.80;99.90;;;;;;4990119;28;20379;-84
2022/05/23 04:29:32;;;;;;;;;;;18.80;99.90;;;;;;4975727;28;19957;-84
2022/05/23 04:31:57;;;;;;;;;;;18.80;99.90;;;;;;4975527;28;20282;-83
2022/05/23 04:37:07;;;;;;;;;;;18.80;99.90;;;;;;4975090;28;19937;-83
2022/05/23 04:39:32;;;;;;;;;;;18.90;99.90;;;;;;4974568;28;19926;-84
2022/05/23 04:42:00;;;;;;;;;;;18.90;99.90;;;;;;4974894;28;19910;-84
2022/05/23 04:44:26;;;;;;;;;;;18.80;99.90;;;;;;4974879;28;19997;-84
2022/05/23 04:49:42;;;;;;;;;;;18.80;99.90;;;;;;4974744;28;20409;-87
2022/05/23 04:52:08;;;;;;;;;;;18.90;99.90;;;;;;4974562;28;19965;-83
2022/05/23 04:54:35;;;;;;;;;;;18.80;99.90;;;;;;4974715;28;20290;-89
2022/05/23 04:57:00;;;;;;;;;;;18.80;99.90;;;;;;4957071;28;20000;-86
2022/05/23 04:59:26;;;;;;;;;;;18.80;99.90;;;;;;4957038;28;19961;-86
2022/05/23 05:01:51;;;;;;;;;;;18.70;99.90;;;;;;4974711;28;20348;-86
2022/05/23 05:04:17;;;;;;;;;;;18.60;99.90;;;;;;4957271;28;20465;-86
2022/05/23 05:06:43;;;;;;;;;;;18.50;99.90;;;;;;4974619;28;19945;-86
2022/05/23 05:09:08;;;;;;;;;;;18.40;99.90;;;;;;4974766;28;19917;-86
2022/05/23 05:11:36;;;;;;;;;;;18.20;99.90;;;;;;4975052;28;20294;-86
2022/05/23 05:14:02;;;;;;;;;;;18.10;99.90;;;;;;4974501;28;19910;-86
2022/05/23 05:16:27;;;;;;;;;;;18.10;99.90;;;;;;4973944;28;20005;-85
2022/05/23 05:18:53;;;;;;;;;;;18.00;99.90;;;;;;4974556;28;19957;-84
2022/05/23 05:21:18;;;;;;;;;;;18.00;99.90;;;;;;4974336;28;20008;-84
2022/05/23 05:23:44;;;;;;;;;;;18.00;99.90;;;;;;4974707;28;20386;-84
2022/05/23 05:26:09;;;;;;;;;;;18.00;99.90;;;;;;4974545;28;19911;-84
2022/05/23 05:28:35;;;;;;;;;;;18.00;99.90;;;;;;4975071;28;19988;-84
2022/05/23 05:31:03;;;;;;;;;;;18.00;99.90;;;;;;4977886;28;20005;-83
2022/05/23 05:33:32;;;;;;;;;;;18.00;99.90;;;;;;4978116;28;19918;-83
2022/05/23 05:36:00;;;;;;;;;;;17.90;99.90;;;;;;4978291;28;19910;-82
2022/05/23 05:38:29;;;;;;;;;;;17.90;99.90;;;;;;4977631;28;19917;-86
2022/05/23 05:41:03;;;;;;;;;;;17.80;99.90;;;;;;4977563;28;20337;-88
2022/05/23 05:43:37;;;;;;;;;;;17.70;99.90;;;;;;4976500;28;19910;-89
2022/05/23 05:46:10;;;;;;;;;;;17.50;99.90;;;;;;4977821;28;20386;-88
2022/05/23 05:48:40;;;;;;;;;;;17.50;99.90;;;;;;4973169;28;19910;-88
2022/05/23 05:51:06;;;;;;;;;;;17.40;99.90;;;;;;4977688;28;19910;-86
2022/05/23 05:53:32;;;;;;;;;;;17.50;99.90;;;;;;4960177;28;19917;-85
2022/05/23 05:55:59;;;;;;;;;;;17.50;99.90;;;;;;4977456;28;19969;-84
2022/05/23 05:58:24;;;;;;;;;;;17.50;99.90;;;;;;4977186;28;19910;-84
2022/05/23 06:00:50;;;;;;;;;;;17.50;99.90;;;;;;4977433;28;19925;-83
2022/05/23 06:03:15;;;;;;;;;;;17.50;99.90;;;;;;4977408;28;20373;-83
2022/05/23 06:11:26;;;;;;;;;;;17.50;99.90;;;;;;4941369;28;19950;-82
2022/05/23 06:13:53;;;;;;;;;;;17.50;99.90;;;;;;4975901;28;19917;-82
2022/05/23 06:16:19;;;;;;;;;;;17.50;99.90;;;;;;4977080;28;19936;-82
2022/05/23 06:18:45;;;;;;;;;;;17.50;99.90;;;;;;4977022;28;19921;-82
2022/05/23 06:21:11;;;;;;;;;;;17.50;99.90;;;;;;4977029;28;19922;-81
2022/05/23 06:23:37;;;;;;;;;;;17.50;99.90;;;;;;4976951;28;19910;-82
2022/05/23 06:26:02;;;;;;;;;;;17.50;99.90;;;;;;4977135;28;19910;-82
2022/05/23 06:28:28;;;;;;;;;;;17.50;99.90;;;;;;4977267;28;19942;-82
2022/05/23 06:30:54;;;;;;;;;;;17.50;99.90;;;;;;4977101;28;20318;-82
2022/05/23 06:33:20;;;;;;;;;;;17.50;99.90;;;;;;4977024;28;20259;-82
2022/05/23 06:35:45;;;;;;;;;;;17.50;99.90;;;;;;4976669;28;19918;-82
2022/05/23 06:38:11;;;;;;;;;;;17.50;99.90;;;;;;4976648;28;19964;-82
2022/05/23 06:40:36;;;;;;;;;;;17.50;99.90;;;;;;4975589;28;19929;-82
2022/05/23 06:43:02;;;;;;;;;;;17.50;99.90;;;;;;4976792;28;19952;-82
2022/05/23 06:45:28;;;;;;;;;;;17.60;99.90;;;;;;4976926;28;20271;-82
2022/05/23 06:47:54;;;;;;;;;;;17.60;99.90;;;;;;4976642;28;19965;-82
2022/05/23 06:50:20;;;;;;;;;;;17.50;99.90;;;;;;4959169;28;20389;-82
2022/05/23 06:52:45;;;;;;;;;;;17.40;99.90;;;;;;4976386;28;19911;-82
2022/05/23 06:55:11;;;;;;;;;;;17.30;99.90;;;;;;4976569;28;19911;-82
2022/05/23 06:57:37;;;;;;;;;;;17.20;99.90;;;;;;4976536;28;20393;-82
2022/05/23 07:00:03;;;;;;;;;;;17.20;99.90;;;;;;4976158;28;20271;-82
2022/05/23 07:02:29;;;;;;;;;;;17.20;99.90;;;;;;4976253;28;19958;-82
2022/05/23 07:13:07;;;;;;;;;;;17.40;99.90;;;;;;4976473;28;19933;-82
2022/05/23 07:15:36;;;;;;;;;;;17.40;99.90;;;;;;4976058;28;20354;-82
2022/05/23 07:18:03;;;;;;;;;;;17.50;99.90;;;;;;4975982;28;19916;-82
2022/05/23 07:20:29;;;;;;;;;;;17.60;99.90;;;;;;4975948;28;19994;-82
2022/05/23 07:22:55;;;;;;;;;;;17.60;99.90;;;;;;4975914;28;19917;-82
2022/05/23 07:25:20;;;;;;;;;;;17.70;99.90;;;;;;4976078;28;19910;-82
2022/05/23 07:27:46;;;;;;;;;;;17.70;99.90;;;;;;4976049;28;19946;-82
2022/05/23 07:30:12;;;;;;;;;;;17.70;99.90;;;;;;4974688;28;19910;-82
2022/05/23 07:32:37;;;;;;;;;;;17.80;99.90;;;;;;4975856;28;19917;-82
2022/05/23 07:35:03;;;;;;;;;;;17.90;99.90;;;;;;4975685;28;19964;-82
2022/05/23 07:37:29;;;;;;;;;;;17.90;99.90;;;;;;4975642;28;19952;-82
2022/05/23 07:39:56;;;;;;;;;;;17.90;99.90;;;;;;4975315;28;19965;-82
2022/05/23 07:42:22;;;;;;;;;;;17.90;99.90;;;;;;4975909;28;19914;-83
2022/05/23 07:44:48;;;;;;;;;;;17.90;99.90;;;;;;4975599;28;19917;-83
2022/05/23 07:47:13;;;;;;;;;;;17.90;99.90;;;;;;4975679;28;20021;-82
2022/05/23 07:49:39;;;;;;;;;;;18.00;99.90;;;;;;4975552;28;19925;-83
2022/05/23 07:52:05;;;;;;;;;;;17.90;99.90;;;;;;4975486;28;19910;-83
2022/05/23 08:02:43;;;;;;;;;;;17.90;99.90;;;;;;4975100;28;19917;-83
2022/05/23 08:05:09;;;;;;;;;;;17.80;99.90;;;;;;4975116;28;19910;-83
2022/05/23 08:07:34;;;;;;;;;;;17.90;99.90;;;;;;4975460;28;19910;-83
2022/05/23 08:10:00;;;;;;;;;;;17.90;99.90;;;;;;4975502;28;20005;-87
2022/05/23 08:12:29;;;;;;;;;;;17.90;99.90;;;;;;4957889;28;19910;-83
2022/05/23 08:14:56;;;;;;;;;;;17.90;99.90;;;;;;4975011;28;20381;-83
2022/05/23 08:17:22;;;;;;;;;;;17.90;99.90;;;;;;4975078;28;19910;-83
2022/05/23 08:19:49;;;;;;;;;;;17.90;99.90;;;;;;4974917;28;19918;-83
2022/05/23 08:22:15;;;;;;;;;;;17.90;99.90;;;;;;4973629;28;19968;-83
2022/05/23 08:24:40;;;;;;;;;;;18.00;99.90;;;;;;4974897;28;19914;-83
2022/05/23 08:27:06;;;;;;;;;;;18.20;99.90;;;;;;4974967;28;20274;-83
2022/05/23 08:29:32;;;;;;;;;;;18.30;99.90;;;;;;4975027;28;19918;-82
2022/05/23 08:31:58;;;;;;;;;;;18.20;99.90;;;;;;4975053;28;20374;-82
2022/05/23 08:34:23;;;;;;;;;;;18.10;99.90;;;;;;4974934;28;20378;-82
2022/05/23 08:36:51;;;;;;;;;;;18.20;99.90;;;;;;4975130;28;19973;-83
2022/05/23 08:39:17;;;;;;;;;;;18.30;99.90;;;;;;4974544;28;19921;-82
2022/05/23 08:41:44;;;;;;;;;;;18.30;99.90;;;;;;4974638;28;19910;-83
2022/05/23 08:44:48;;;;;;;;;;;18.30;99.90;;;;;;4974772;28;20378;-83
2022/05/23 08:47:17;;;;;;;;;;;18.30;99.90;;;;;;4915609;29;19988;-83
2022/05/23 08:49:44;;;;;;;;;;;18.40;99.90;;;;;;4915416;29;19954;-83
2022/05/23 08:52:22;;;;;;;;;;;18.40;99.90;;;;;;4944409;28;20405;-83
2022/05/23 08:54:54;;;;;;;;;;;18.60;99.90;;;;;;4974714;28;19917;-83
2022/05/23 08:57:27;;;;;;;;;;;18.70;99.90;;;;;;4974838;28;19914;-83
2022/05/23 08:59:55;;;;;;;;;;;18.90;99.90;;;;;;4974484;28;19924;-83
2022/05/23 09:02:35;;;;;;;;;;;18.90;99.90;;;;;;4974541;28;19917;-83
2022/05/23 09:05:05;;;;;;;;;;;18.80;99.90;;;;;;4977684;28;19946;-83
2022/05/23 09:07:35;;;;;;;;;;;18.80;99.90;;;;;;4961050;28;19921;-82
2022/05/23 09:10:03;;;;;;;;;;;18.80;99.90;;;;;;4978437;28;19910;-83
2022/05/23 09:12:29;;;;;;;;;;;18.80;99.90;;;;;;4978332;28;20285;-83
2022/05/23 09:14:55;;;;;;;;;;;18.70;99.90;;;;;;4978184;28;19910;-83
2022/05/23 09:17:23;;;;;;;;;;;18.50;99.90;;;;;;4978282;28;19910;-83
2022/05/23 09:19:54;;;;;;;;;;;18.60;99.90;;;;;;4978170;28;19925;-83
2022/05/23 09:22:29;;;;;;;;;;;18.80;99.90;;;;;;4978189;28;20441;-82
2022/05/23 09:24:59;;;;;;;;;;;19.00;99.90;;;;;;4978020;28;19984;-83
2022/05/23 09:27:24;;;;;;;;;;;19.10;99.90;;;;;;4978169;28;20045;-82
2022/05/23 09:29:52;;;;;;;;;;;19.10;99.90;;;;;;4978171;28;19954;-83
2022/05/23 09:32:19;;;;;;;;;;;19.30;99.90;;;;;;4978027;28;19911;-82
2022/05/23 09:34:47;;;;;;;;;;;19.50;99.90;;;;;;4978145;28;19944;-83
2022/05/23 09:37:23;;;;;;;;;;;19.60;99.90;;;;;;4977925;28;20310;-83
2022/05/23 09:39:53;;;;;;;;;;;19.70;99.90;;;;;;4960083;28;19926;-83
2022/05/23 09:48:06;;;;;;;;;;;20.20;99.90;;;;;;4977706;28;19964;-83
2022/05/23 09:50:35;;;;;;;;;;;20.20;99.90;;;;;;4977686;28;19933;-82
2022/05/23 09:53:01;;;;;;;;;;;20.20;99.90;;;;;;4960237;28;19911;-83
2022/05/23 09:55:31;;;;;;;;;;;20.10;99.90;;;;;;4977523;28;19914;-87
2022/05/23 09:58:02;;;;;;;;;;;19.90;99.90;;;;;;4977490;28;19911;-82
2022/05/23 10:00:33;;;;;;;;;;;19.60;99.90;;;;;;4977402;28;19929;-83
2022/05/23 10:03:02;;;;;;;;;;;19.30;99.90;;;;;;4977319;28;19956;-83
2022/05/23 10:05:30;;;;;;;;;;;19.10;99.90;;;;;;4977315;28;19918;-83
2022/05/23 10:08:00;;;;;;;;;;;19.20;99.90;;;;;;4977708;28;19917;-82
2022/05/23 10:10:30;;;;;;;;;;;19.50;99.90;;;;;;4977106;28;20004;-82
2022/05/23 10:13:14;;;;;;;;;;;19.70;99.90;;;;;;4977358;28;19957;-82
2022/05/23 10:15:45;;;;;;;;;;;19.70;99.90;;;;;;4976082;28;19910;-82
2022/05/23 10:18:18;;;;;;;;;;;19.90;99.90;;;;;;4977221;28;20001;-82
2022/05/23 10:20:43;;;;;;;;;;;20.10;99.90;;;;;;4976862;28;20030;-82
2022/05/23 10:23:12;;;;;;;;;;;20.20;99.90;;;;;;4976953;28;20378;-82
2022/05/23 10:25:41;;;;;;;;;;;20.40;99.90;;;;;;4976844;28;20014;-83
2022/05/23 10:28:09;;;;;;;;;;;20.20;99.90;;;;;;4978466;28;19910;-82
2022/05/23 10:30:36;;;;;;;;;;;20.10;99.90;;;;;;4976737;28;19921;-82
2022/05/23 10:33:19;;;;;;;;;;;20.10;99.90;;;;;;4976856;28;19917;-82
2022/05/23 10:35:58;;;;;;;;;;;20.00;99.90;;;;;;4977086;28;19910;-82
2022/05/23 10:44:04;;;;;;;;;;;19.60;99.90;;;;;;4976886;28;19969;-82
2022/05/23 10:46:34;;;;;;;;;;;19.50;99.90;;;;;;4976909;28;19914;-83
2022/05/23 10:48:59;;;;;;;;;;;19.50;99.90;;;;;;4976964;28;20346;-82
2022/05/23 10:51:39;;;;;;;;;;;19.50;99.90;;;;;;4976632;28;19916;-83
2022/05/23 10:54:30;;;;;;;;;;;19.50;99.90;;;;;;4976546;28;20448;-83
2022/05/23 10:56:58;;;;;;;;;;;19.50;99.90;;;;;;4978185;28;19964;-82
2022/05/23 10:59:42;;;;;;;;;;;19.00;99.90;;;;;;4976319;28;20013;-84
2022/05/23 11:02:40;;;;;;;;;;;18.50;99.90;;;;;;4976205;28;19910;-84
2022/05/23 11:05:15;;;;;;;;;;;18.30;99.90;;;;;;4943794;28;20337;-83
2022/05/23 11:07:55;;;;;;;;;;;18.40;99.90;;;;;;4976491;28;19910;-83
2022/05/23 11:10:25;;;;;;;;;;;18.70;99.90;;;;;;4976187;28;19917;-82
2022/05/23 11:12:53;;;;;;;;;;;18.90;99.90;;;;;;4974931;28;19916;-82
2022/05/23 11:15:19;;;;;;;;;;;19.10;99.90;;;;;;4976331;28;20330;-82
2022/05/23 11:17:44;;;;;;;;;;;19.00;99.90;;;;;;4976143;28;20002;-82
2022/05/23 11:20:18;;;;;;;;;;;19.20;99.90;;;;;;4975997;28;19918;-82
2022/05/23 11:23:00;;;;;;;;;;;19.60;99.90;;;;;;4975903;28;19918;-82
2022/05/23 11:25:27;;;;;;;;;;;20.10;99.90;;;;;;4975953;28;19910;-82
2022/05/23 11:33:45;;;;;;;;;;;19.10;99.90;;;;;;4976132;28;19918;-85
2022/05/23 11:36:15;;;;;;;;;;;18.50;99.90;;;;;;4975826;28;19910;-84
2022/05/23 11:38:45;;;;;;;;;;;18.30;99.90;;;;;;4975639;28;20417;-84
2022/05/23 11:41:26;;;;;;;;;;;18.40;99.90;;;;;;4975258;28;20318;-83
2022/05/23 11:43:52;;;;;;;;;;;18.60;99.90;;;;;;4975586;28;19910;-83
2022/05/23 11:46:24;;;;;;;;;;;18.60;99.90;;;;;;4974242;28;19910;-83
2022/05/23 11:48:58;;;;;;;;;;;18.70;99.90;;;;;;4975459;28;19917;-82
2022/05/23 11:51:23;;;;;;;;;;;18.90;99.90;;;;;;4958226;28;19979;-82
2022/05/23 11:54:01;;;;;;;;;;;19.20;99.90;;;;;;4975447;28;19910;-82
2022/05/23 11:56:45;;;;;;;;;;;19.40;99.90;;;;;;4975659;28;20001;-82
2022/05/23 11:59:12;;;;;;;;;;;19.80;99.90;;;;;;4975121;28;19910;-82
2022/05/23 12:01:39;;;;;;;;;;;19.70;99.90;;;;;;4975167;28;19910;-83
2022/05/23 12:04:04;;;;;;;;;;;19.90;99.90;;;;;;4975193;28;20370;-82
2022/05/23 12:06:29;;;;;;;;;;;19.80;99.90;;;;;;4975283;28;19964;-82
2022/05/23 12:08:58;;;;;;;;;;;19.90;99.90;;;;;;4975263;28;19910;-83
2022/05/23 12:11:24;;;;;;;;;;;19.80;99.90;;;;;;4975218;28;20005;-83
2022/05/23 12:13:51;;;;;;;;;;;19.90;99.90;;;;;;4975155;28;19910;-83
2022/05/23 12:16:20;;;;;;;;;;;20.00;99.90;;;;;;4957825;28;20381;-82
2022/05/23 12:18:47;;;;;;;;;;;20.00;99.90;;;;;;4975083;28;19910;-82
2022/05/23 12:21:32;;;;;;;;;;;20.40;99.90;;;;;;4975159;28;19925;-82
2022/05/23 12:24:35;;;;;;;;;;;20.50;99.90;;;;;;4974893;28;19914;-82
2022/05/23 12:27:04;;;;;;;;;;;20.60;99.90;;;;;;4915275;29;20366;-82
2022/05/23 12:29:34;;;;;;;;;;;20.40;99.90;;;;;;4964732;28;20326;-82
2022/05/23 12:32:03;;;;;;;;;;;20.30;99.90;;;;;;4975087;28;20012;-82
2022/05/23 12:34:28;;;;;;;;;;;20.20;99.90;;;;;;4974999;28;20461;-82
2022/05/23 12:36:54;;;;;;;;;;;20.40;99.90;;;;;;4973902;28;20004;-82
2022/05/23 12:39:38;;;;;;;;;;;20.60;99.90;;;;;;4974084;28;19925;-82
2022/05/23 12:42:07;;;;;;;;;;;20.90;99.90;;;;;;4974643;28;20001;-82
2022/05/23 12:44:49;;;;;;;;;;;20.50;99.90;;;;;;4974759;28;20338;-82
2022/05/23 12:47:16;;;;;;;;;;;20.50;99.90;;;;;;4974787;28;19957;-82
2022/05/23 12:49:42;;;;;;;;;;;21.10;99.90;;;;;;4974773;28;19910;-82
2022/05/23 12:52:35;;;;;;;;;;;21.50;99.90;;;;;;4974899;28;19910;-82
2022/05/23 12:55:12;;;;;;;;;;;21.40;99.90;;;;;;4974796;28;19910;-82
2022/05/23 12:57:55;;;;;;;;;;;21.20;99.90;;;;;;4974909;28;20332;-83
2022/05/23 13:00:22;;;;;;;;;;;21.70;99.90;;;;;;4974772;28;19918;-82
2022/05/23 13:02:47;;;;;;;;;;;21.80;99.90;;;;;;4974613;28;20404;-83
2022/05/23 13:05:35;;;;;;;;;;;21.90;99.90;;;;;;4974555;28;19949;-83
2022/05/23 13:08:02;;;;;;;;;;;22.00;99.90;;;;;;4974563;28;20004;-83
2022/05/23 13:10:41;;;;;;;;;;;22.40;99.90;;;;;;4974755;28;19941;-83
2022/05/23 13:13:14;;;;;;;;;;;22.50;99.90;;;;;;4974800;28;19910;-82
2022/05/23 13:15:40;;;;;;;;;;;22.40;99.90;;;;;;4974998;28;19910;-82
2022/05/23 13:23:35;;;;;;;;;;;21.70;99.90;;;;;;4974424;28;20022;-83
2022/05/23 13:26:05;;;;;;;;;;;21.40;99.90;;;;;;4974360;28;19915;-88
2022/05/23 13:28:31;;;;;;;;;;;21.50;99.90;;;;;;4974853;28;19911;-83
2022/05/23 13:30:57;;;;;;;;;;;21.90;99.90;;;;;;4974371;28;19917;-88
2022/05/23 13:33:30;;;;;;;;;;;22.50;99.90;;;;;;4974993;28;19911;-83
2022/05/23 13:36:00;;;;;;;;;;;22.60;99.90;;;;;;4974313;28;19910;-83
2022/05/23 13:38:30;;;;;;;;;;;22.10;99.90;;;;;;4974283;28;19910;-82
2022/05/23 13:40:56;;;;;;;;;;;21.70;99.90;;;;;;4988839;28;19922;-82
2022/05/23 13:43:34;;;;;;;;;;;21.60;99.90;;;;;;4974198;28;19910;-82
2022/05/23 13:46:01;;;;;;;;;;;21.60;99.90;;;;;;4974220;28;19946;-84
2022/05/23 13:48:38;;;;;;;;;;;22.10;99.90;;;;;;4974604;28;19981;-82
2022/05/23 13:51:06;;;;;;;;;;;22.00;99.90;;;;;;4976989;28;19915;-82
2022/05/23 13:53:34;;;;;;;;;;;22.30;99.90;;;;;;4977648;28;19913;-82
2022/05/23 13:56:01;;;;;;;;;;;21.50;99.90;;;;;;4977638;28;19914;-82
2022/05/23 13:58:30;;;;;;;;;;;21.10;99.90;;;;;;4977574;28;19953;-82
2022/05/23 14:00:57;;;;;;;;;;;20.80;99.90;;;;;;4977734;28;19965;-83
2022/05/23 14:03:23;;;;;;;;;;;20.80;99.90;;;;;;4977448;28;19915;-83
2022/05/23 14:05:50;;;;;;;;;;;20.90;99.90;;;;;;4977317;28;20005;-83
2022/05/23 14:08:20;;;;;;;;;;;21.10;99.90;;;;;;4977408;28;20327;-82
2022/05/23 14:10:46;;;;;;;;;;;21.50;99.90;;;;;;4977144;28;19953;-83
2022/05/23 14:13:12;;;;;;;;;;;22.00;99.90;;;;;;4977431;28;19937;-83
2022/05/23 14:15:42;;;;;;;;;;;23.30;99.90;;;;;;4977187;28;19910;-83
2022/05/23 14:18:16;;;;;;;;;;;24.80;99.90;;;;;;4977595;28;20370;-88
2022/05/23 14:20:46;;;;;;;;;;;23.70;99.90;;;;;;4977364;28;19918;-83
2022/05/23 14:23:11;;;;;;;;;;;22.80;99.90;;;;;;4977106;28;20259;-82
2022/05/23 14:25:40;;;;;;;;;;;22.30;99.90;;;;;;4977044;28;19917;-83
2022/05/23 14:28:09;;;;;;;;;;;21.60;99.90;;;;;;4976999;28;19910;-83
2022/05/23 14:30:38;;;;;;;;;;;21.20;99.90;;;;;;4976944;28;19921;-83
2022/05/23 14:33:15;;;;;;;;;;;21.20;99.90;;;;;;4976988;28;19910;-82
2022/05/23 14:35:55;;;;;;;;;;;21.40;99.90;;;;;;4977061;28;20323;-83
2022/05/23 14:38:41;;;;;;;;;;;21.10;99.90;;;;;;4976982;28;19910;-82
2022/05/23 14:41:22;;;;;;;;;;;21.00;99.90;;;;;;4976626;28;19922;-82
2022/05/23 14:44:06;;;;;;;;;;;21.10;99.90;;;;;;4975398;28;19911;-82
2022/05/23 14:46:33;;;;;;;;;;;20.90;99.90;;;;;;4976610;28;20286;-83
2022/05/23 14:49:05;;;;;;;;;;;21.00;99.90;;;;;;4976410;28;20352;-83
2022/05/23 14:51:37;;;;;;;;;;;21.60;99.90;;;;;;4976402;28;19918;-83
2022/05/23 14:57:02;;;;;;;;;;;24.50;99.90;;;;;;4976547;28;19917;-83
2022/05/23 15:00:37;;;;;;;;;;;23.80;99.90;;;;;;4976411;28;19925;-82
2022/05/23 15:02:32;;;;;;;;;;;22.90;99.90;;;;;;4970906;28;20271;-82
2022/05/23 15:05:03;;;;;;;;;;;22.10;99.90;;;;;;4976558;28;19953;-83
2022/05/23 15:07:29;;;;;;;;;;;21.30;99.90;;;;;;4976296;28;19949;-82
2022/05/23 15:09:55;;;;;;;;;;;21.00;99.90;;;;;;4976162;28;20362;-82
2022/05/23 15:12:21;;;;;;;;;;;20.80;99.90;;;;;;4976242;28;19957;-82
2022/05/23 15:14:48;;;;;;;;;;;20.60;99.90;;;;;;4976249;28;19910;-83
2022/05/23 15:17:15;;;;;;;;;;;20.20;99.90;;;;;;4975057;28;19910;-83
2022/05/23 15:19:41;;;;;;;;;;;19.80;99.90;;;;;;4976233;28;20382;-83
2022/05/23 15:22:12;;;;;;;;;;;19.90;99.90;;;;;;4976341;28;19910;-82
2022/05/23 15:24:37;;;;;;;;;;;19.90;99.90;;;;;;4976163;28;19917;-82
2022/05/23 15:27:05;;;;;;;;;;;19.80;99.90;;;;;;4975764;28;20285;-82
2022/05/23 15:29:32;;;;;;;;;;;19.70;99.90;;;;;;4974510;28;19910;-83
2022/05/23 15:31:59;;;;;;;;;;;19.80;99.90;;;;;;4974500;28;19996;-83